createdAt,value
2023-04-04T00:01:25.487Z,76.34
2023-04-04T00:03:52.479Z,73.59
2023-04-04T00:06:19.242Z,74.31
2023-04-04T00:08:45.695Z,73.68
2023-04-04T00:11:12.405Z,75.01
2023-04-04T00:13:38.891Z,73.89
2023-04-04T00:16:06.041Z,72.69
2023-04-04T00:18:32.692Z,72.01
2023-04-04T00:20:59.396Z,72.94
2023-04-04T00:23:25.781Z,71.41
2023-04-04T00:25:52.757Z,71.10
2023-04-04T00:28:20.516Z,71.22
2023-04-04T00:30:48.042Z,71.22
2023-04-04T00:33:15.027Z,72.62
2023-04-04T00:35:41.678Z,71.52
2023-04-04T00:38:08.142Z,70.77
2023-04-04T00:40:45.625Z,70.67
2023-04-04T00:43:12.298Z,70.30
2023-04-04T00:45:38.825Z,70.62
2023-04-04T00:48:06.625Z,70.76
2023-04-04T00:50:33.053Z,72.61
2023-04-04T00:52:59.476Z,71.23
2023-04-04T00:55:26.324Z,71.47
2023-04-04T00:57:53.018Z,72.09
2023-04-04T01:00:19.919Z,70.97
2023-04-04T01:02:47.562Z,71.38
2023-04-04T01:05:14.032Z,71.34
2023-04-04T01:07:40.679Z,70.71
2023-04-04T01:10:07.545Z,69.91
2023-04-04T01:12:34.659Z,70.67
2023-04-04T01:15:01.116Z,70.86
2023-04-04T01:17:28.271Z,70.64
2023-04-04T01:20:11.443Z,71.57
2023-04-04T01:22:40.394Z,70.69
2023-04-04T01:25:07.856Z,72.91
2023-04-04T01:27:35.079Z,71.15
2023-04-04T01:30:03.223Z,71.29
2023-04-04T01:32:49.773Z,70.90
2023-04-04T01:35:42.712Z,71.93
2023-04-04T01:38:24.643Z,71.37
2023-04-04T01:40:55.345Z,70.72
2023-04-04T01:43:22.295Z,72.07
2023-04-04T01:45:49.521Z,72.54
2023-04-04T01:48:16.736Z,72.16
2023-04-04T01:50:43.119Z,71.56
2023-04-04T01:53:09.459Z,73.73
2023-04-04T01:55:35.790Z,71.16
2023-04-04T01:58:02.144Z,71.74
2023-04-04T02:00:28.493Z,70.77
2023-04-04T02:02:54.918Z,71.45
2023-04-04T02:05:21.302Z,71.65
2023-04-04T02:07:49.739Z,71.75
2023-04-04T02:10:16.448Z,71.69
2023-04-04T02:12:42.819Z,71.45
2023-04-04T02:15:09.646Z,72.06
2023-04-04T02:17:36.035Z,72.83
2023-04-04T02:20:02.383Z,72.91
2023-04-04T02:22:28.756Z,73.46
2023-04-04T02:24:57.530Z,72.80
2023-04-04T02:27:24.236Z,73.01
2023-04-04T02:29:50.578Z,73.21
2023-04-04T02:32:18.323Z,73.24
2023-04-04T02:34:44.675Z,73.61
2023-04-04T02:37:11.086Z,74.74
2023-04-04T02:39:37.445Z,74.65
2023-04-04T02:42:03.938Z,76.20
2023-04-04T02:44:30.396Z,76.26
2023-04-04T02:46:57.617Z,78.43
2023-04-04T02:49:24.074Z,79.29
2023-04-04T02:51:50.474Z,78.52
2023-04-04T02:54:16.838Z,77.73
2023-04-04T02:56:43.218Z,80.26
2023-04-04T02:59:09.611Z,81.40
2023-04-04T03:01:36.257Z,80.15
2023-04-04T03:04:04.452Z,79.53
2023-04-04T03:06:33.860Z,76.54
2023-04-04T03:09:00.853Z,74.72
2023-04-04T03:11:27.223Z,75.09
2023-04-04T03:13:55.836Z,74.62
2023-04-04T03:16:22.355Z,73.51
2023-04-04T03:18:49.290Z,73.92
2023-04-04T03:21:16.520Z,76.63
2023-04-04T03:23:43.042Z,77.00
2023-04-04T03:26:09.582Z,77.50
2023-04-04T03:28:36.361Z,76.54
2023-04-04T03:33:53.105Z,76.18
2023-04-04T03:36:19.450Z,74.46
2023-04-04T03:38:45.824Z,73.87
2023-04-04T03:41:12.146Z,73.78
2023-04-04T03:43:38.566Z,74.53
2023-04-04T03:46:06.137Z,75.64
2023-04-04T03:48:33.540Z,77.13
2023-04-04T03:50:59.893Z,77.57
2023-04-04T03:53:26.701Z,77.04
2023-04-04T03:55:55.954Z,78.79
2023-04-04T03:58:22.998Z,80.59
2023-04-04T04:00:49.409Z,80.35
2023-04-04T04:03:17.092Z,79.33
2023-04-04T04:05:43.796Z,79.70
2023-04-04T04:08:10.155Z,79.07
2023-04-04T04:10:36.493Z,82.74
2023-04-04T04:13:02.892Z,79.87
2023-04-04T04:15:29.307Z,78.89
2023-04-04T04:17:55.842Z,79.16
2023-04-04T04:20:22.396Z,77.34
2023-04-04T04:22:49.651Z,79.04
2023-04-04T04:25:17.066Z,78.60
2023-04-04T04:27:44.864Z,79.15
2023-04-04T04:30:11.526Z,76.71
2023-04-04T04:32:38.295Z,76.98
2023-04-04T04:35:05.250Z,77.86
2023-04-04T04:37:31.997Z,77.21
2023-04-04T04:39:58.574Z,76.31
2023-04-04T04:42:25.111Z,78.98
2023-04-04T04:44:51.460Z,79.63
2023-04-04T04:47:17.830Z,78.84
2023-04-04T04:49:47.984Z,81.71
2023-04-04T04:52:14.413Z,79.06
2023-04-04T04:54:41.084Z,77.58
2023-04-04T04:57:07.940Z,78.80
2023-04-04T04:59:34.285Z,78.27
2023-04-04T05:02:00.929Z,77.73
2023-04-04T05:04:27.661Z,78.13
2023-04-04T05:06:54.070Z,76.56
2023-04-04T05:09:20.423Z,77.18
2023-04-04T05:11:47.647Z,76.93
2023-04-04T05:14:14.274Z,73.63
2023-04-04T05:16:41.289Z,74.04
2023-04-04T05:19:07.714Z,75.77
2023-04-04T05:21:34.109Z,74.20
2023-04-04T05:24:00.900Z,78.34
2023-04-04T05:26:27.275Z,74.98
2023-04-04T05:28:54.061Z,77.38
2023-04-04T05:31:21.172Z,76.61
2023-04-04T05:33:47.569Z,76.45
2023-04-04T05:36:14.442Z,75.79
2023-04-04T05:38:40.829Z,77.78
2023-04-04T05:41:07.183Z,74.13
2023-04-04T05:43:33.538Z,73.96
2023-04-04T05:45:59.937Z,74.49
2023-04-04T05:48:26.325Z,69.04
2023-04-04T05:50:52.784Z,66.87
2023-04-04T05:53:19.137Z,68.54
2023-04-04T05:55:45.695Z,68.93
2023-04-04T05:58:13.649Z,65.42
2023-04-04T06:00:40.286Z,66.68
2023-04-04T06:03:06.805Z,64.45
2023-04-04T06:05:33.265Z,63.83
2023-04-04T06:08:00.559Z,67.70
2023-04-04T06:10:27.419Z,67.53
2023-04-04T06:12:53.765Z,64.21
2023-04-04T06:15:20.311Z,66.22
2023-04-04T06:17:46.805Z,62.78
2023-04-04T06:20:13.237Z,61.03
2023-04-04T06:22:39.611Z,63.54
2023-04-04T06:25:06.518Z,61.97
2023-04-04T06:27:33.162Z,63.23
2023-04-04T06:29:59.588Z,62.21
2023-04-04T06:32:26.200Z,62.53
2023-04-04T06:34:53.375Z,62.48
2023-04-04T06:37:20.115Z,62.69
2023-04-04T06:39:46.504Z,60.83
2023-04-04T06:42:12.942Z,60.73
2023-04-04T06:44:39.298Z,60.77
2023-04-04T06:47:05.775Z,58.79
2023-04-04T06:49:33.346Z,60.14
2023-04-04T06:52:00.515Z,58.86
2023-04-04T06:54:26.894Z,59.65
2023-04-04T06:56:53.245Z,59.74
2023-04-04T06:59:19.658Z,57.57
2023-04-04T07:01:46.108Z,56.77
2023-04-04T07:04:12.536Z,57.72
2023-04-04T07:06:38.896Z,55.06
2023-04-04T07:09:07.206Z,54.13
2023-04-04T07:11:35.487Z,52.99
2023-04-04T07:14:01.857Z,52.71
2023-04-04T07:16:28.211Z,51.21
2023-04-04T07:18:54.618Z,52.90
2023-04-04T07:21:21.242Z,51.27
2023-04-04T07:23:47.571Z,50.37
2023-04-04T07:26:13.944Z,50.03
2023-04-04T07:28:40.336Z,49.41
2023-04-04T07:31:06.765Z,46.65
2023-04-04T07:33:33.115Z,46.94
2023-04-04T07:36:02.015Z,46.06
2023-04-04T07:38:28.750Z,46.44
2023-04-04T07:40:55.731Z,46.86
2023-04-04T07:43:22.711Z,49.44
2023-04-04T07:45:49.110Z,49.54
2023-04-04T07:48:15.628Z,48.41
2023-04-04T07:50:42.108Z,45.59
2023-04-04T07:53:08.517Z,45.36
2023-04-04T07:55:34.868Z,46.22
2023-04-04T07:58:01.428Z,45.09
2023-04-04T08:00:27.868Z,46.07
2023-04-04T08:03:01.658Z,49.12
2023-04-04T08:05:28.429Z,45.77
2023-04-04T08:07:54.788Z,45.96
2023-04-04T08:10:21.848Z,45.93
2023-04-04T08:12:48.995Z,47.56
2023-04-04T08:15:16.005Z,48.66
2023-04-04T08:17:43.503Z,48.06
2023-04-04T08:20:11.049Z,46.55
2023-04-04T08:22:38.372Z,47.48
2023-04-04T08:25:05.720Z,45.29
2023-04-04T08:27:32.769Z,46.52
2023-04-04T08:29:59.114Z,44.54
2023-04-04T08:32:25.457Z,46.36
2023-04-04T08:34:52.053Z,46.27
2023-04-04T08:37:18.400Z,43.59
2023-04-04T08:39:45.343Z,44.75
2023-04-04T08:42:12.603Z,44.44
2023-04-04T08:44:41.689Z,43.19
2023-04-04T08:47:10.365Z,42.61
2023-04-04T08:49:43.884Z,48.25
2023-04-04T08:52:12.672Z,47.96
2023-04-04T08:54:40.586Z,46.02
2023-04-04T08:57:08.196Z,44.60
2023-04-04T08:59:34.692Z,42.49
2023-04-04T09:02:15.283Z,42.18
2023-04-04T09:04:48.657Z,42.80
2023-04-04T09:07:22.760Z,46.94
2023-04-04T09:09:50.527Z,46.21
2023-04-04T09:12:17.176Z,46.67
2023-04-04T09:14:45.170Z,45.83
2023-04-04T09:17:11.662Z,47.99
2023-04-04T09:19:38.024Z,42.79
2023-04-04T09:22:09.035Z,41.74
2023-04-04T09:24:40.308Z,43.02
2023-04-04T09:27:08.801Z,46.60
2023-04-04T09:29:35.292Z,49.07
2023-04-04T09:32:01.939Z,50.18
2023-04-04T09:34:29.278Z,48.83
2023-04-04T09:36:56.826Z,47.04
2023-04-04T09:39:23.627Z,49.49
2023-04-04T09:41:50.346Z,46.69
2023-04-04T09:44:17.324Z,47.28
2023-04-04T09:46:43.948Z,53.36
2023-04-04T09:49:21.284Z,51.52
2023-04-04T09:51:56.802Z,52.26
2023-04-04T09:54:29.402Z,50.08
2023-04-04T09:56:56.862Z,49.98
2023-04-04T09:59:24.175Z,49.40
2023-04-04T10:01:53.341Z,48.92
2023-04-04T10:04:20.040Z,50.75
2023-04-04T10:06:47.126Z,53.53
2023-04-04T10:09:15.997Z,56.00
2023-04-04T10:11:42.398Z,53.34
2023-04-04T10:14:09.330Z,51.28
2023-04-04T10:16:38.718Z,49.99
2023-04-04T10:19:08.758Z,49.84
2023-04-04T10:21:35.810Z,52.36
2023-04-04T10:24:08.865Z,51.30
2023-04-04T10:26:35.480Z,55.06
2023-04-04T10:29:01.918Z,52.78
2023-04-04T10:31:30.469Z,54.80
2023-04-04T10:34:25.188Z,51.35
2023-04-04T10:37:13.527Z,50.25
2023-04-04T10:39:53.599Z,53.24
2023-04-04T10:42:20.017Z,50.67
2023-04-04T10:44:47.477Z,51.71
2023-04-04T10:47:23.743Z,50.96
2023-04-04T10:49:51.440Z,50.27
2023-04-04T10:52:20.849Z,50.69
2023-04-04T10:54:50.183Z,52.54
2023-04-04T10:57:17.456Z,52.87
2023-04-04T11:00:01.073Z,51.75
2023-04-04T11:02:47.909Z,52.76
2023-04-04T11:05:25.884Z,50.37
2023-04-04T11:08:13.995Z,53.76
2023-04-04T11:10:45.847Z,51.94
2023-04-04T11:13:22.016Z,51.92
2023-04-04T11:15:53.619Z,47.33
2023-04-04T11:18:32.805Z,52.04
2023-04-04T11:21:05.479Z,50.27
2023-04-04T11:23:47.344Z,50.45
2023-04-04T11:26:14.589Z,49.00
2023-04-04T11:28:40.874Z,48.76
2023-04-04T11:31:20.370Z,50.40
2023-04-04T11:34:02.883Z,51.48
2023-04-04T11:36:35.518Z,52.79
2023-04-04T11:39:07.892Z,48.48
2023-04-04T11:41:47.667Z,50.57
2023-04-04T11:44:15.995Z,50.05
2023-04-04T11:46:42.860Z,51.46
2023-04-04T11:49:10.434Z,54.03
2023-04-04T11:51:39.451Z,49.93
2023-04-04T11:54:06.458Z,50.99
2023-04-04T11:56:39.013Z,50.21
2023-04-04T11:59:11.277Z,50.42
2023-04-04T12:01:40.383Z,49.39
2023-04-04T12:04:06.801Z,50.09
2023-04-04T12:06:35.431Z,49.77
2023-04-04T12:09:03.893Z,47.45
2023-04-04T12:11:32.018Z,50.58
2023-04-04T12:13:58.369Z,50.91
2023-04-04T12:16:24.740Z,51.09
2023-04-04T12:18:51.890Z,50.65
2023-04-04T12:21:18.528Z,48.28
2023-04-04T12:23:46.397Z,48.85
2023-04-04T12:26:13.042Z,46.57
2023-04-04T12:28:40.126Z,48.83
2023-04-04T12:31:07.165Z,46.86
2023-04-04T12:33:34.466Z,47.69
2023-04-04T12:36:03.682Z,46.22
2023-04-04T12:38:31.223Z,49.42
2023-04-04T12:40:58.163Z,46.56
2023-04-04T12:43:28.606Z,47.59
2023-04-04T12:45:57.196Z,45.41
2023-04-04T12:48:28.768Z,45.63
2023-04-04T12:50:57.662Z,48.67
2023-04-04T12:53:29.394Z,46.46
2023-04-04T12:56:03.074Z,47.88
2023-04-04T12:58:29.597Z,49.19
2023-04-04T13:01:00.665Z,46.02
2023-04-04T13:03:28.607Z,46.23
2023-04-04T13:05:55.217Z,45.67
2023-04-04T13:08:22.004Z,46.50
2023-04-04T13:11:07.694Z,48.40
2023-04-04T13:13:36.247Z,48.45
2023-04-04T13:16:05.080Z,45.23
2023-04-04T13:18:43.319Z,47.69
2023-04-04T13:21:12.958Z,48.46
2023-04-04T13:23:41.178Z,49.01
2023-04-04T13:26:09.815Z,46.66
2023-04-04T13:28:36.701Z,44.76
2023-04-04T13:31:04.540Z,47.15
2023-04-04T13:33:31.437Z,46.38
2023-04-04T13:35:58.628Z,46.00
2023-04-04T13:38:27.176Z,45.17
2023-04-04T13:40:54.509Z,45.74
2023-04-04T13:43:21.126Z,46.11
2023-04-04T13:45:47.725Z,45.68
2023-04-04T13:48:14.207Z,47.62
2023-04-04T13:50:43.885Z,45.00
2023-04-04T13:53:10.976Z,45.02
2023-04-04T13:55:39.970Z,45.10
2023-04-04T13:58:08.147Z,43.61
2023-04-04T14:00:34.558Z,46.59
2023-04-04T14:03:01.240Z,46.98
2023-04-04T14:05:27.608Z,44.85
2023-04-04T14:07:53.976Z,46.50
2023-04-04T14:10:20.847Z,46.59
2023-04-04T14:12:47.290Z,44.77
2023-04-04T14:15:13.798Z,45.11
2023-04-04T14:17:40.379Z,43.19
2023-04-04T14:20:07.820Z,46.89
2023-04-04T14:22:34.204Z,45.68
2023-04-04T14:25:00.576Z,43.17
2023-04-04T14:27:26.927Z,42.84
2023-04-04T14:29:53.292Z,44.03
2023-04-04T14:32:19.665Z,43.96
2023-04-04T14:34:46.032Z,45.59
2023-04-04T14:37:12.391Z,47.56
2023-04-04T14:39:38.751Z,43.75
2023-04-04T14:42:05.811Z,43.95
2023-04-04T14:44:32.484Z,45.86
2023-04-04T14:47:00.020Z,45.51
2023-04-04T14:49:26.501Z,45.81
2023-04-04T14:51:53.185Z,45.74
2023-04-04T14:54:19.547Z,44.69
2023-04-04T14:56:46.938Z,44.14
2023-04-04T14:59:13.891Z,44.55
2023-04-04T15:01:40.519Z,44.17
2023-04-04T15:04:07.420Z,43.72
2023-04-04T15:06:37.709Z,45.29
2023-04-04T15:09:08.656Z,46.50
2023-04-04T15:11:37.846Z,44.41
2023-04-04T15:14:05.591Z,42.76
2023-04-04T15:16:33.208Z,46.53
2023-04-04T15:19:00.718Z,44.69
2023-04-04T15:21:28.227Z,45.89
2023-04-04T15:23:55.035Z,44.29
2023-04-04T15:26:22.154Z,45.88
2023-04-04T15:28:49.381Z,45.56
2023-04-04T15:31:15.947Z,48.28
2023-04-04T15:33:42.362Z,47.35
2023-04-04T15:36:08.737Z,48.45
2023-04-04T15:38:35.083Z,45.98
2023-04-04T15:41:01.615Z,48.75
2023-04-04T15:43:27.992Z,46.73
2023-04-04T15:45:54.346Z,46.57
2023-04-04T15:48:20.909Z,48.51
2023-04-04T15:50:47.322Z,47.00
2023-04-04T15:53:13.686Z,49.00
2023-04-04T15:55:42.721Z,47.23
2023-04-04T15:58:09.060Z,45.22
2023-04-04T16:00:35.690Z,45.38
2023-04-04T16:03:02.254Z,45.77
2023-04-04T16:05:28.820Z,45.02
2023-04-04T16:07:55.318Z,48.27
2023-04-04T16:10:21.673Z,45.71
2023-04-04T16:12:48.031Z,46.14
2023-04-04T16:15:14.501Z,45.71
2023-04-04T16:17:40.861Z,45.03
2023-04-04T16:20:07.730Z,45.38
2023-04-04T16:22:34.098Z,45.07
2023-04-04T16:25:00.516Z,43.97
2023-04-04T16:27:27.082Z,46.22
2023-04-04T16:29:53.492Z,44.43
2023-04-04T16:32:19.828Z,46.89
2023-04-04T16:34:46.165Z,44.95
2023-04-04T16:37:13.117Z,46.23
2023-04-04T16:39:39.475Z,47.95
2023-04-04T16:42:05.848Z,46.66
2023-04-04T16:44:32.212Z,48.30
2023-04-04T16:46:58.672Z,46.37
2023-04-04T16:49:25.198Z,46.25
2023-04-04T16:51:51.597Z,48.60
2023-04-04T16:54:17.947Z,48.04
2023-04-04T16:56:44.380Z,48.05
2023-04-04T16:59:11.129Z,47.62
2023-04-04T17:01:38.016Z,48.42
2023-04-04T17:04:04.479Z,48.27
2023-04-04T17:06:31.266Z,49.77
2023-04-04T17:08:57.701Z,50.05
2023-04-04T17:11:24.095Z,49.81
2023-04-04T17:13:50.443Z,50.11
2023-04-04T17:16:16.890Z,50.47
2023-04-04T17:18:43.326Z,49.87
2023-04-04T17:21:09.675Z,49.76
2023-04-04T17:23:36.050Z,49.46
2023-04-04T17:26:02.429Z,49.52
2023-04-04T17:28:28.767Z,51.52
2023-04-04T17:30:55.159Z,52.64
2023-04-04T17:33:23.147Z,53.85
2023-04-04T17:35:49.794Z,55.38
2023-04-04T17:38:16.195Z,53.56
2023-04-04T17:40:42.622Z,53.33
2023-04-04T17:43:09.012Z,53.76
2023-04-04T17:45:35.387Z,53.33
2023-04-04T17:48:01.824Z,53.33
2023-04-04T17:50:28.332Z,55.63
2023-04-04T17:52:54.684Z,55.64
2023-04-04T17:55:22.183Z,56.85
2023-04-04T17:57:48.885Z,56.11
2023-04-04T18:00:15.781Z,56.61
2023-04-04T18:02:42.275Z,57.19
2023-04-04T18:05:10.072Z,58.02
2023-04-04T18:07:36.617Z,58.30
2023-04-04T18:10:03.046Z,59.76
2023-04-04T18:12:30.551Z,58.46
2023-04-04T18:14:57.065Z,59.36
2023-04-04T18:17:24.726Z,59.50
2023-04-04T18:19:51.314Z,58.95
2023-04-04T18:22:17.704Z,60.95
2023-04-04T18:24:44.067Z,61.52
2023-04-04T18:27:11.148Z,61.68
2023-04-04T18:29:37.521Z,62.49
2023-04-04T18:32:04.010Z,62.86
2023-04-04T18:34:30.472Z,64.85
2023-04-04T18:36:56.856Z,64.76
2023-04-04T18:39:23.456Z,65.93
2023-04-04T18:41:50.384Z,66.52
2023-04-04T18:44:16.745Z,67.19
2023-04-04T18:46:43.193Z,67.26
2023-04-04T18:49:09.689Z,67.67
2023-04-04T18:51:36.140Z,68.62
2023-04-04T18:54:02.749Z,69.28
2023-04-04T18:56:29.134Z,69.47
2023-04-04T18:58:55.713Z,70.44
2023-04-04T19:01:23.266Z,70.43
2023-04-04T19:03:51.739Z,69.46
2023-04-04T19:06:18.165Z,70.45
2023-04-04T19:08:44.999Z,72.14
2023-04-04T19:11:11.557Z,71.19
2023-04-04T19:13:38.519Z,72.26
2023-04-04T19:16:05.214Z,72.29
2023-04-04T19:18:31.620Z,72.91
2023-04-04T19:20:58.435Z,73.30
2023-04-04T19:23:24.826Z,73.42
2023-04-04T19:25:51.318Z,72.84
2023-04-04T19:28:17.860Z,73.13
2023-04-04T19:30:49.015Z,72.59
2023-04-04T19:33:17.518Z,73.08
2023-04-04T19:35:55.454Z,73.04
2023-04-04T19:38:24.792Z,72.80
2023-04-04T19:40:55.621Z,73.94
2023-04-04T19:43:23.024Z,73.82
2023-04-04T19:45:51.527Z,73.81
2023-04-04T19:48:44.085Z,74.66
2023-04-04T19:51:32.141Z,74.74
2023-04-04T19:53:59.786Z,74.53
2023-04-04T19:56:28.296Z,74.76
2023-04-04T19:59:03.507Z,74.04
2023-04-04T20:01:31.634Z,73.66
2023-04-04T20:04:06.486Z,74.89
2023-04-04T20:06:33.106Z,75.96
2023-04-04T20:09:01.554Z,75.53
2023-04-04T20:11:30.061Z,73.92
2023-04-04T20:13:57.862Z,75.41
2023-04-04T20:16:25.269Z,75.12
2023-04-04T20:18:52.184Z,73.98
2023-04-04T20:21:24.113Z,74.20
2023-04-04T20:23:53.477Z,74.08
2023-04-04T20:26:38.283Z,74.92
2023-04-04T20:29:13.681Z,75.78
2023-04-04T20:31:54.372Z,76.02
2023-04-04T20:34:41.104Z,74.45
2023-04-04T20:37:20.124Z,75.05
2023-04-04T20:39:46.576Z,74.62
2023-04-04T20:42:31.756Z,74.84
2023-04-04T20:45:11.070Z,75.32
2023-04-04T20:47:45.374Z,75.96
2023-04-04T20:50:18.207Z,74.07
2023-04-04T20:52:50.445Z,76.81
2023-04-04T20:55:18.577Z,74.15
2023-04-04T20:57:50.214Z,74.07
2023-04-04T21:00:28.353Z,73.44
2023-04-04T21:02:56.433Z,74.12
2023-04-04T21:05:31.649Z,74.45
2023-04-04T21:07:59.902Z,74.81
2023-04-04T21:10:29.193Z,74.13
2023-04-04T21:13:00.890Z,75.80
2023-04-04T21:15:29.522Z,74.80
2023-04-04T21:17:58.802Z,75.35
2023-04-04T21:20:46.987Z,75.42
2023-04-04T21:23:26.098Z,73.01
2023-04-04T21:26:08.489Z,73.51
2023-04-04T21:28:36.813Z,71.75
2023-04-04T21:31:13.327Z,73.01
2023-04-04T21:33:47.919Z,73.81
2023-04-04T21:36:23.356Z,72.50
2023-04-04T21:38:51.845Z,72.32
2023-04-04T21:41:26.595Z,73.34
2023-04-04T21:43:54.841Z,72.58
2023-04-04T21:46:25.567Z,73.04
2023-04-04T21:48:53.021Z,73.83
2023-04-04T21:51:20.246Z,73.99
2023-04-04T21:53:46.982Z,73.41
2023-04-04T21:56:13.876Z,72.86
2023-04-04T21:58:41.054Z,73.47
2023-04-04T22:01:07.601Z,74.04
2023-04-04T22:03:34.101Z,72.77
2023-04-04T22:06:00.428Z,73.46
2023-04-04T22:08:26.791Z,73.68
2023-04-04T22:10:53.181Z,73.64
2023-04-04T22:13:22.374Z,73.98
2023-04-04T22:15:52.405Z,75.88
2023-04-04T22:18:29.607Z,76.75
2023-04-04T22:20:57.648Z,75.19
2023-04-04T22:23:25.167Z,70.21
2023-04-04T22:25:51.885Z,73.90
2023-04-04T22:28:18.283Z,74.14
2023-04-04T22:30:44.728Z,70.37
2023-04-04T22:33:11.927Z,71.28
2023-04-04T22:35:39.536Z,72.41
2023-04-04T22:38:06.295Z,72.08
2023-04-04T22:40:33.896Z,73.99
2023-04-04T22:43:01.418Z,74.78
2023-04-04T22:45:29.527Z,75.56
2023-04-04T22:47:57.807Z,74.53
2023-04-04T22:50:24.809Z,73.70
2023-04-04T22:52:52.369Z,72.38
2023-04-04T22:55:21.200Z,71.29
2023-04-04T22:57:47.530Z,72.30
2023-04-04T23:00:14.724Z,72.88
2023-04-04T23:02:43.618Z,72.03
2023-04-04T23:05:11.266Z,73.91
2023-04-04T23:07:38.442Z,73.75
2023-04-04T23:10:06.337Z,75.77
2023-04-04T23:12:32.937Z,75.23
2023-04-04T23:15:01.330Z,74.18
2023-04-04T23:17:27.963Z,73.11
2023-04-04T23:19:54.610Z,73.46
2023-04-04T23:22:20.983Z,76.01
2023-04-04T23:24:48.054Z,76.68
2023-04-04T23:27:15.581Z,76.56
2023-04-04T23:29:43.170Z,76.05
2023-04-04T23:32:10.226Z,75.62
2023-04-04T23:34:37.005Z,76.29
2023-04-04T23:37:03.659Z,77.32
2023-04-04T23:39:30.283Z,78.02
2023-04-04T23:41:58.217Z,76.84
2023-04-04T23:44:24.622Z,78.12
2023-04-04T23:46:51.424Z,78.29
2023-04-04T23:49:17.939Z,76.85
2023-04-04T23:51:45.347Z,76.18
2023-04-04T23:54:12.849Z,74.46
2023-04-04T23:56:40.576Z,77.55
2023-04-04T23:59:07.062Z,77.42
